Time;durP1;ratioP1;P1;durP2;ratioP2;P2;SDS_P1;SDS_P2;PMS_P1;PMS_P2;Temp;Humidity;BMP_temperature;BMP_pressure;BME280_temperature;BME280_humidity;BME280_pressure;Samples;Min_cycle;Max_cycle;Signal;HPM_P1;HPM_P2
2021/01/13 00:02:07;;;;;;;13.30;8.07;;;;;;;;;;5034184;28;20041;-70
2021/01/13 00:04:33;;;;;;;15.77;9.05;;;;;;;;;;5033913;28;20060;-70
2021/01/13 00:07:00;;;;;;;12.50;8.55;;;;;;;;;;5033944;28;20057;-70
2021/01/13 00:09:26;;;;;;;13.60;8.13;;;;;;;;;;5034149;28;20053;-70
2021/01/13 00:11:56;;;;;;;15.85;7.95;;;;;;;;;;5034468;28;20107;-70
2021/01/13 00:14:25;;;;;;;13.55;7.72;;;;;;;;;;5033801;28;20053;-70
2021/01/13 00:16:52;;;;;;;14.52;7.03;;;;;;;;;;5033759;28;20107;-70
2021/01/13 00:19:19;;;;;;;10.35;6.80;;;;;;;;;;5033824;28;20073;-70
2021/01/13 00:21:52;;;;;;;13.65;7.15;;;;;;;;;;5033954;28;20081;-70
2021/01/13 00:24:19;;;;;;;9.10;6.07;;;;;;;;;;5033816;28;20057;-70
2021/01/13 00:26:45;;;;;;;10.30;6.35;;;;;;;;;;5033421;28;20053;-70
2021/01/13 00:29:12;;;;;;;11.07;6.43;;;;;;;;;;5033574;28;20053;-70
2021/01/13 00:31:38;;;;;;;11.05;6.45;;;;;;;;;;5033400;28;20045;-70
2021/01/13 00:34:07;;;;;;;9.68;7.57;;;;;;;;;;5032339;28;20052;-70
2021/01/13 00:36:33;;;;;;;10.75;6.55;;;;;;;;;;5032916;28;20049;-70
2021/01/13 00:38:59;;;;;;;8.35;6.72;;;;;;;;;;5033384;28;20091;-70
2021/01/13 00:41:25;;;;;;;6.43;5.43;;;;;;;;;;5033329;28;20081;-70
2021/01/13 00:43:52;;;;;;;6.20;5.13;;;;;;;;;;5033083;28;20532;-70
2021/01/13 00:46:21;;;;;;;9.90;5.20;;;;;;;;;;5033020;28;20049;-70
2021/01/13 00:48:47;;;;;;;8.65;5.50;;;;;;;;;;5033157;28;20522;-70
2021/01/13 00:51:13;;;;;;;8.20;5.03;;;;;;;;;;5032055;28;20080;-70
2021/01/13 00:53:40;;;;;;;7.75;4.47;;;;;;;;;;5031929;28;20053;-70
2021/01/13 00:56:06;;;;;;;8.57;5.07;;;;;;;;;;5032712;28;20099;-70
2021/01/13 00:58:32;;;;;;;8.35;5.38;;;;;;;;;;5032986;28;20079;-70
2021/01/13 01:00:59;;;;;;;12.95;5.70;;;;;;;;;;5033138;28;20053;-70
2021/01/13 01:03:25;;;;;;;8.77;5.22;;;;;;;;;;5032966;28;20057;-70
2021/01/13 01:05:57;;;;;;;10.75;5.45;;;;;;;;;;5031650;28;20057;-70
2021/01/13 01:08:23;;;;;;;10.68;4.53;;;;;;;;;;5032982;28;20077;-70
2021/01/13 01:10:53;;;;;;;8.73;5.72;;;;;;;;;;5032716;28;20049;-70
2021/01/13 01:13:19;;;;;;;8.95;4.57;;;;;;;;;;5032810;28;20049;-70
2021/01/13 01:15:45;;;;;;;6.93;4.43;;;;;;;;;;5032122;28;20103;-70
2021/01/13 01:18:11;;;;;;;7.60;4.88;;;;;;;;;;5032675;28;20061;-70
2021/01/13 01:20:37;;;;;;;7.80;4.28;;;;;;;;;;5032892;28;20475;-70
2021/01/13 01:23:04;;;;;;;5.82;4.43;;;;;;;;;;5031389;28;20046;-70
2021/01/13 01:25:30;;;;;;;9.63;4.78;;;;;;;;;;5032127;28;20065;-70
2021/01/13 01:27:59;;;;;;;7.95;4.32;;;;;;;;;;5032602;28;20050;-70
2021/01/13 01:30:26;;;;;;;10.70;4.60;;;;;;;;;;5032375;28;20049;-70
2021/01/13 01:32:53;;;;;;;6.55;4.57;;;;;;;;;;5032244;28;20053;-70
2021/01/13 01:35:19;;;;;;;5.93;4.20;;;;;;;;;;5032060;28;20045;-70
2021/01/13 01:37:50;;;;;;;5.85;3.40;;;;;;;;;;5032619;28;20496;-70
2021/01/13 01:40:17;;;;;;;8.88;4.32;;;;;;;;;;5032274;28;20107;-70
2021/01/13 01:42:46;;;;;;;9.52;4.00;;;;;;;;;;5032050;28;20056;-70
2021/01/13 01:45:17;;;;;;;6.72;3.95;;;;;;;;;;5031756;28;20550;-70
2021/01/13 01:48:01;;;;;;;5.30;3.80;;;;;;;;;;5032002;28;20056;-70
2021/01/13 01:50:31;;;;;;;10.45;3.97;;;;;;;;;;5032041;28;20049;-70
2021/01/13 01:53:21;;;;;;;7.28;3.60;;;;;;;;;;5032164;28;20138;-70
2021/01/13 01:56:21;;;;;;;6.80;4.18;;;;;;;;;;5031920;28;20487;-70
2021/01/13 01:58:49;;;;;;;9.38;3.50;;;;;;;;;;5032145;28;20129;-70
2021/01/13 02:01:19;;;;;;;5.78;2.90;;;;;;;;;;5032055;28;20108;-70
2021/01/13 02:03:49;;;;;;;8.43;3.97;;;;;;;;;;5030804;28;20132;-70
2021/01/13 02:06:19;;;;;;;7.32;3.15;;;;;;;;;;5030606;28;20076;-70
2021/01/13 02:08:46;;;;;;;8.80;3.88;;;;;;;;;;5031742;28;20500;-70
2021/01/13 02:11:18;;;;;;;5.88;3.10;;;;;;;;;;5031864;28;20115;-70
2021/01/13 02:13:46;;;;;;;4.13;3.30;;;;;;;;;;5031706;28;20057;-70
2021/01/13 02:16:16;;;;;;;9.00;3.25;;;;;;;;;;5031673;28;20088;-70
2021/01/13 02:18:47;;;;;;;5.15;2.90;;;;;;;;;;5030281;28;20144;-70
2021/01/13 02:21:21;;;;;;;6.95;2.72;;;;;;;;;;5031768;28;20085;-70
2021/01/13 02:23:54;;;;;;;5.63;3.45;;;;;;;;;;5031573;28;20103;-70
2021/01/13 02:26:42;;;;;;;4.57;2.83;;;;;;;;;;5030404;28;20096;-70
2021/01/13 02:29:08;;;;;;;4.03;2.83;;;;;;;;;;5031430;28;20093;-70
2021/01/13 02:31:52;;;;;;;5.55;2.78;;;;;;;;;;5031642;28;20132;-70
2021/01/13 02:34:39;;;;;;;6.13;2.95;;;;;;;;;;5030193;28;20068;-70
2021/01/13 02:37:40;;;;;;;5.80;3.10;;;;;;;;;;5030274;28;20053;-70
2021/01/13 02:40:08;;;;;;;6.28;2.97;;;;;;;;;;5031683;28;20447;-70
2021/01/13 02:42:40;;;;;;;3.25;2.80;;;;;;;;;;5031499;28;20045;-70
2021/01/13 02:45:10;;;;;;;3.85;2.63;;;;;;;;;;5030320;28;20045;-70
2021/01/13 02:47:58;;;;;;;6.03;3.00;;;;;;;;;;5031629;28;20199;-70
2021/01/13 02:50:26;;;;;;;5.60;3.28;;;;;;;;;;5031453;28;20057;-70
2021/01/13 02:53:15;;;;;;;5.90;3.13;;;;;;;;;;5030223;28;20073;-70
2021/01/13 02:55:47;;;;;;;5.20;2.33;;;;;;;;;;5030821;28;20111;-70
2021/01/13 02:58:18;;;;;;;3.55;2.70;;;;;;;;;;5031487;28;20053;-70
2021/01/13 03:00:45;;;;;;;5.82;3.17;;;;;;;;;;5030171;28;20492;-70
2021/01/13 03:03:11;;;;;;;7.57;3.42;;;;;;;;;;5030172;28;20125;-70
2021/01/13 03:05:37;;;;;;;9.00;4.00;;;;;;;;;;5029513;28;20049;-70
2021/01/13 03:08:06;;;;;;;9.10;3.83;;;;;;;;;;5031440;28;20049;-70
2021/01/13 03:10:36;;;;;;;10.93;4.22;;;;;;;;;;5029951;28;20050;-70
2021/01/13 03:13:04;;;;;;;11.43;4.43;;;;;;;;;;5030090;28;20055;-70
2021/01/13 03:15:32;;;;;;;13.70;5.03;;;;;;;;;;5030721;28;20053;-70
2021/01/13 03:18:10;;;;;;;8.13;4.43;;;;;;;;;;5030159;28;20053;-70
2021/01/13 03:21:04;;;;;;;13.77;6.55;;;;;;;;;;5031416;28;20167;-70
2021/01/13 03:24:06;;;;;;;9.43;5.70;;;;;;;;;;5014289;28;20103;-70
2021/01/13 03:26:36;;;;;;;8.75;4.43;;;;;;;;;;5030854;28;20484;-70
2021/01/13 03:29:02;;;;;;;6.47;4.38;;;;;;;;;;5014449;28;20408;-70
2021/01/13 03:31:30;;;;;;;6.88;4.20;;;;;;;;;;5000706;28;20362;-70
2021/01/13 03:34:15;;;;;;;6.03;4.13;;;;;;;;;;5033425;28;20077;-70
2021/01/13 03:37:00;;;;;;;4.88;3.20;;;;;;;;;;5034247;28;20563;-70
2021/01/13 03:39:32;;;;;;;5.78;3.33;;;;;;;;;;5034550;28;20053;-70
2021/01/13 03:42:15;;;;;;;8.05;3.90;;;;;;;;;;5017417;28;20049;-70
2021/01/13 03:44:44;;;;;;;7.55;3.53;;;;;;;;;;5034212;28;20103;-70
2021/01/13 03:47:16;;;;;;;6.18;3.42;;;;;;;;;;5034433;28;20050;-70
2021/01/13 03:50:08;;;;;;;6.40;3.45;;;;;;;;;;5034165;28;20137;-70
2021/01/13 03:52:39;;;;;;;8.82;3.55;;;;;;;;;;5034184;28;20045;-70
2021/01/13 03:55:06;;;;;;;4.80;3.38;;;;;;;;;;5034019;28;20081;-70
2021/01/13 03:57:57;;;;;;;4.78;3.75;;;;;;;;;;5033922;28;20053;-70
2021/01/13 04:00:31;;;;;;;7.53;4.10;;;;;;;;;;5034382;28;20046;-70
2021/01/13 04:03:12;;;;;;;5.18;3.80;;;;;;;;;;5033155;28;20492;-70
2021/01/13 04:05:42;;;;;;;9.68;3.53;;;;;;;;;;5033618;28;20119;-70
2021/01/13 04:08:08;;;;;;;5.97;4.10;;;;;;;;;;5016239;28;20566;-70
2021/01/13 04:10:35;;;;;;;6.35;3.70;;;;;;;;;;5016471;28;20095;-70
2021/01/13 04:13:27;;;;;;;7.22;3.88;;;;;;;;;;5033875;28;20085;-70
2021/01/13 04:15:53;;;;;;;10.65;3.97;;;;;;;;;;5033600;28;20076;-69
2021/01/13 04:18:19;;;;;;;8.40;4.68;;;;;;;;;;5016343;28;20050;-70
2021/01/13 04:20:46;;;;;;;8.10;3.28;;;;;;;;;;5032620;28;20633;-70
2021/01/13 04:23:12;;;;;;;5.53;3.72;;;;;;;;;;5033885;28;20057;-70
2021/01/13 04:25:38;;;;;;;6.97;4.30;;;;;;;;;;5033187;28;20088;-69
2021/01/13 04:28:05;;;;;;;8.60;4.20;;;;;;;;;;5033655;28;20099;-69
2021/01/13 04:30:31;;;;;;;5.95;3.80;;;;;;;;;;5033807;28;20077;-69
2021/01/13 04:32:58;;;;;;;6.53;3.63;;;;;;;;;;5033604;28;20085;-70
2021/01/13 04:35:25;;;;;;;9.57;3.42;;;;;;;;;;5033280;28;20045;-70
2021/01/13 04:37:52;;;;;;;7.72;3.42;;;;;;;;;;5032208;28;20127;-70
2021/01/13 04:40:32;;;;;;;6.28;3.70;;;;;;;;;;5033082;28;20049;-70
2021/01/13 04:43:04;;;;;;;5.55;3.10;;;;;;;;;;5032087;28;20042;-70
2021/01/13 04:45:43;;;;;;;8.30;3.58;;;;;;;;;;5033050;28;20049;-70
2021/01/13 04:48:14;;;;;;;8.43;3.53;;;;;;;;;;5033402;28;20140;-70
2021/01/13 04:50:42;;;;;;;5.18;3.28;;;;;;;;;;5033205;28;20096;-70
2021/01/13 04:53:15;;;;;;;6.68;3.40;;;;;;;;;;5033094;28;20045;-70
2021/01/13 04:55:50;;;;;;;4.78;3.65;;;;;;;;;;5033255;28;20057;-69
2021/01/13 04:58:53;;;;;;;8.45;3.65;;;;;;;;;;5033127;28;20551;-69
2021/01/13 05:01:56;;;;;;;7.20;4.05;;;;;;;;;;5033051;28;20080;-69
2021/01/13 05:04:29;;;;;;;10.38;3.50;;;;;;;;;;5032849;28;20050;-68
2021/01/13 05:07:14;;;;;;;7.90;3.72;;;;;;;;;;5031523;28;20049;-68
2021/01/13 05:10:00;;;;;;;8.23;3.17;;;;;;;;;;5032806;28;20045;-69
2021/01/13 05:12:44;;;;;;;9.52;4.65;;;;;;;;;;5032952;28;20095;-69
2021/01/13 05:15:14;;;;;;;8.82;4.70;;;;;;;;;;5032681;28;20467;-68
2021/01/13 05:17:40;;;;;;;10.23;5.50;;;;;;;;;;5032655;28;20110;-69
2021/01/13 05:20:06;;;;;;;13.75;5.30;;;;;;;;;;5015019;28;20053;-68
2021/01/13 05:22:34;;;;;;;7.50;4.38;;;;;;;;;;5032319;28;20045;-68
2021/01/13 05:25:05;;;;;;;9.73;4.18;;;;;;;;;;5032500;28;20088;-69
2021/01/13 05:27:46;;;;;;;9.82;5.15;;;;;;;;;;5031208;28;20045;-68
2021/01/13 05:30:13;;;;;;;8.93;4.35;;;;;;;;;;5032482;28;20489;-68
2021/01/13 05:32:39;;;;;;;8.20;4.50;;;;;;;;;;5032469;28;20404;-68
2021/01/13 05:35:07;;;;;;;9.57;4.85;;;;;;;;;;5032509;28;20095;-68
2021/01/13 05:37:50;;;;;;;10.75;4.95;;;;;;;;;;5032110;28;20045;-68
2021/01/13 05:40:16;;;;;;;7.22;4.70;;;;;;;;;;5014981;28;20576;-68
2021/01/13 05:42:44;;;;;;;9.55;5.32;;;;;;;;;;5032077;28;20045;-68
2021/01/13 05:45:14;;;;;;;10.18;5.20;;;;;;;;;;5032010;28;20100;-69
2021/01/13 05:47:55;;;;;;;15.13;5.50;;;;;;;;;;5031765;28;20554;-68
2021/01/13 05:50:23;;;;;;;10.10;5.72;;;;;;;;;;5031937;28;20488;-69
2021/01/13 05:52:51;;;;;;;9.88;4.65;;;;;;;;;;5031220;28;20041;-68
2021/01/13 05:55:21;;;;;;;10.57;5.20;;;;;;;;;;5046643;28;20053;-68
2021/01/13 05:58:00;;;;;;;10.32;5.90;;;;;;;;;;5031900;28;20049;-68
2021/01/13 06:00:28;;;;;;;7.50;4.38;;;;;;;;;;5032009;28;20460;-68
2021/01/13 06:03:02;;;;;;;11.55;5.07;;;;;;;;;;5032110;28;20095;-69
2021/01/13 06:05:32;;;;;;;6.30;4.50;;;;;;;;;;5046902;28;20083;-69
2021/01/13 06:08:00;;;;;;;15.15;4.88;;;;;;;;;;5031960;28;20085;-69
2021/01/13 06:10:30;;;;;;;8.68;4.00;;;;;;;;;;5030713;28;20053;-70
2021/01/13 06:12:58;;;;;;;8.68;4.40;;;;;;;;;;5027070;28;20087;-70
2021/01/13 06:15:25;;;;;;;7.18;4.25;;;;;;;;;;5019715;28;20536;-70
2021/01/13 06:17:52;;;;;;;11.63;4.50;;;;;;;;;;5011973;28;20050;-70
2021/01/13 06:20:23;;;;;;;13.27;5.10;;;;;;;;;;5012144;28;20468;-69
2021/01/13 06:22:50;;;;;;;18.95;7.10;;;;;;;;;;5012289;28;20108;-69
2021/01/13 06:25:30;;;;;;;21.55;9.82;;;;;;;;;;5010776;28;20263;-69
2021/01/13 06:28:22;;;;;;;19.60;8.90;;;;;;;;;;5014686;28;20045;-69
2021/01/13 06:31:02;;;;;;;16.02;7.25;;;;;;;;;;5010956;28;20112;-71
2021/01/13 06:33:50;;;;;;;11.07;6.28;;;;;;;;;;5010907;28;20050;-70
2021/01/13 06:36:30;;;;;;;13.23;6.72;;;;;;;;;;5011763;28;20421;-70
2021/01/13 06:39:00;;;;;;;12.50;6.18;;;;;;;;;;5024783;28;20053;-70
2021/01/13 06:41:27;;;;;;;15.30;7.15;;;;;;;;;;5031596;28;20069;-70
2021/01/13 06:43:57;;;;;;;10.20;5.40;;;;;;;;;;5031491;28;20050;-70
2021/01/13 06:46:23;;;;;;;12.98;5.05;;;;;;;;;;5031283;28;20135;-70
2021/01/13 06:48:49;;;;;;;12.32;4.93;;;;;;;;;;5031395;28;20054;-69
2021/01/13 06:51:18;;;;;;;14.45;4.93;;;;;;;;;;5031252;28;20049;-69
2021/01/13 06:53:45;;;;;;;11.75;5.63;;;;;;;;;;5031631;28;20057;-71
2021/01/13 06:56:16;;;;;;;12.93;6.63;;;;;;;;;;5031066;28;20053;-70
2021/01/13 06:58:55;;;;;;;10.57;5.97;;;;;;;;;;5015418;28;20591;-68
2021/01/13 07:01:21;;;;;;;10.80;6.03;;;;;;;;;;5015852;28;20532;-68
2021/01/13 07:03:56;;;;;;;10.80;5.70;;;;;;;;;;5033740;28;20072;-68
2021/01/13 07:06:22;;;;;;;11.95;5.50;;;;;;;;;;5018272;28;20053;-69
2021/01/13 07:08:49;;;;;;;12.52;5.20;;;;;;;;;;5023696;28;20519;-69
2021/01/13 07:11:15;;;;;;;12.40;5.80;;;;;;;;;;5034565;28;20508;-70
2021/01/13 07:13:54;;;;;;;12.00;5.65;;;;;;;;;;5019479;28;20057;-68
2021/01/13 07:16:30;;;;;;;9.90;5.43;;;;;;;;;;5022536;28;20049;-70
2021/01/13 07:18:57;;;;;;;12.00;5.13;;;;;;;;;;5018437;28;20045;-69
2021/01/13 07:21:37;;;;;;;15.05;5.95;;;;;;;;;;5019736;28;20080;-69
2021/01/13 07:24:11;;;;;;;15.98;6.32;;;;;;;;;;5021245;28;20049;-69
2021/01/13 07:26:38;;;;;;;17.33;6.57;;;;;;;;;;5021673;28;20550;-69
2021/01/13 07:29:05;;;;;;;17.25;6.22;;;;;;;;;;5029952;28;20049;-69
2021/01/13 07:31:31;;;;;;;16.45;6.95;;;;;;;;;;5031946;28;20413;-69
2021/01/13 07:34:02;;;;;;;21.98;7.75;;;;;;;;;;5031144;28;20056;-69
2021/01/13 07:36:32;;;;;;;22.70;9.30;;;;;;;;;;5027832;28;20453;-69
2021/01/13 07:39:04;;;;;;;17.60;7.90;;;;;;;;;;5023788;28;20045;-69
2021/01/13 07:41:58;;;;;;;14.43;6.45;;;;;;;;;;5032442;28;20037;-68
2021/01/13 07:44:41;;;;;;;10.77;4.55;;;;;;;;;;5015647;28;20049;-69
2021/01/13 07:47:28;;;;;;;14.15;6.32;;;;;;;;;;5018054;28;20459;-67
2021/01/13 07:50:09;;;;;;;10.93;6.00;;;;;;;;;;5032062;28;20046;-66
2021/01/13 07:52:42;;;;;;;8.85;5.18;;;;;;;;;;5028497;28;20085;-67
2021/01/13 07:55:16;;;;;;;14.05;7.15;;;;;;;;;;5022552;28;20516;-66
2021/01/13 07:57:50;;;;;;;13.75;6.80;;;;;;;;;;5031585;28;20057;-65
2021/01/13 08:00:31;;;;;;;14.68;7.72;;;;;;;;;;5028261;28;20077;-67
2021/01/13 08:03:09;;;;;;;14.80;6.03;;;;;;;;;;5012543;28;20050;-67
2021/01/13 08:06:25;;;;;;;12.63;6.53;;;;;;;;;;5011951;28;20050;-66
2021/01/13 08:09:14;;;;;;;10.48;6.07;;;;;;;;;;5012137;28;20053;-69
2021/01/13 08:12:13;;;;;;;10.82;7.07;;;;;;;;;;5024607;28;20045;-68
2021/01/13 08:14:52;;;;;;;7.63;5.45;;;;;;;;;;5024546;28;20060;-70
2021/01/13 08:17:51;;;;;;;10.60;5.05;;;;;;;;;;5025176;28;20550;-68
2021/01/13 08:20:37;;;;;;;11.02;5.25;;;;;;;;;;5020461;28;20085;-69
2021/01/13 08:23:12;;;;;;;11.15;4.90;;;;;;;;;;5035111;28;20329;-69
2021/01/13 08:25:43;;;;;;;9.90;4.90;;;;;;;;;;5018667;28;20052;-69
2021/01/13 08:28:11;;;;;;;7.78;4.85;;;;;;;;;;5017988;28;20049;-72
2021/01/13 08:30:40;;;;;;;11.48;4.95;;;;;;;;;;5033272;28;20625;-70
2021/01/13 08:33:28;;;;;;;6.20;4.68;;;;;;;;;;5021909;28;20049;-70
2021/01/13 08:36:01;;;;;;;7.30;4.30;;;;;;;;;;5023111;28;20053;-70
2021/01/13 08:38:27;;;;;;;;;;;;;;;;;;5018093;28;20073;-70
2021/01/13 08:40:54;;;;;;;7.32;4.28;;;;;;;;;;5022231;28;20391;-71
2021/01/13 08:43:23;;;;;;;6.43;3.85;;;;;;;;;;5017001;28;20042;-70
2021/01/13 08:45:50;;;;;;;7.45;4.03;;;;;;;;;;5022803;28;20042;-75
2021/01/13 08:48:23;;;;;;;7.80;4.40;;;;;;;;;;5016947;28;20471;-70
2021/01/13 08:51:08;;;;;;;6.85;3.97;;;;;;;;;;5035571;28;20085;-73
2021/01/13 08:53:35;;;;;;;7.40;3.72;;;;;;;;;;5020897;28;20107;-75
2021/01/13 08:56:01;;;;;;;11.43;3.78;;;;;;;;;;5018639;28;20053;-74
2021/01/13 08:58:35;;;;;;;9.27;3.83;;;;;;;;;;5017260;28;20107;-74
2021/01/13 09:01:05;;;;;;;9.40;3.65;;;;;;;;;;5020445;28;20053;-69
2021/01/13 09:03:41;;;;;;;7.07;3.13;;;;;;;;;;5019034;28;20459;-69
2021/01/13 09:06:20;;;;;;;7.88;4.22;;;;;;;;;;5022333;28;20049;-69
2021/01/13 09:08:48;;;;;;;11.07;2.85;;;;;;;;;;5027454;28;20492;-71
2021/01/13 09:11:33;;;;;;;5.88;2.88;;;;;;;;;;5030961;28;20119;-69
2021/01/13 09:14:19;;;;;;;7.68;3.13;;;;;;;;;;5029990;28;20056;-68
2021/01/13 09:16:52;;;;;;;5.40;3.17;;;;;;;;;;5031899;28;20049;-69
2021/01/13 09:19:30;;;;;;;7.18;3.08;;;;;;;;;;5032635;28;20068;-69
2021/01/13 09:22:01;;;;;;;9.20;3.17;;;;;;;;;;5032818;28;20123;-69
2021/01/13 09:24:35;;;;;;;6.60;2.95;;;;;;;;;;5032269;28;20057;-69
2021/01/13 09:27:03;;;;;;;9.35;2.97;;;;;;;;;;5030342;28;20103;-69
2021/01/13 09:29:52;;;;;;;7.78;2.70;;;;;;;;;;5032352;28;20496;-69
2021/01/13 09:32:19;;;;;;;6.90;3.28;;;;;;;;;;5032463;28;20049;-69
2021/01/13 09:34:47;;;;;;;9.98;3.10;;;;;;;;;;5031888;28;20049;-70
2021/01/13 09:37:14;;;;;;;6.70;2.25;;;;;;;;;;5030737;28;20046;-69
2021/01/13 09:39:53;;;;;;;7.93;3.00;;;;;;;;;;5032207;28;20127;-69
2021/01/13 09:42:21;;;;;;;6.57;2.78;;;;;;;;;;5032709;28;20045;-68
2021/01/13 09:44:59;;;;;;;6.38;3.05;;;;;;;;;;5014563;28;20107;-69
2021/01/13 09:47:25;;;;;;;7.55;3.40;;;;;;;;;;5030436;28;20045;-70
2021/01/13 09:49:57;;;;;;;6.45;2.40;;;;;;;;;;5032296;28;20103;-69
2021/01/13 09:52:24;;;;;;;4.95;2.33;;;;;;;;;;5032060;28;20099;-70
2021/01/13 09:54:52;;;;;;;8.52;2.65;;;;;;;;;;5031925;28;20103;-70
2021/01/13 09:57:18;;;;;;;4.97;2.22;;;;;;;;;;5031650;28;20045;-69
2021/01/13 10:00:05;;;;;;;6.68;2.40;;;;;;;;;;5031856;28;20049;-69
2021/01/13 10:02:31;;;;;;;8.20;3.35;;;;;;;;;;5031854;28;20504;-67
2021/01/13 10:04:57;;;;;;;6.80;1.95;;;;;;;;;;5031920;28;20085;-67
2021/01/13 10:07:32;;;;;;;6.35;2.17;;;;;;;;;;5031385;28;20045;-69
2021/01/13 10:09:59;;;;;;;4.38;2.40;;;;;;;;;;5030856;28;20076;-69
2021/01/13 10:12:35;;;;;;;9.32;3.17;;;;;;;;;;5031758;28;20492;-69
2021/01/13 10:15:04;;;;;;;4.53;1.90;;;;;;;;;;5031815;28;20463;-70
2021/01/13 10:17:30;;;;;;;6.43;1.90;;;;;;;;;;5030223;28;20080;-68
2021/01/13 10:19:58;;;;;;;5.32;2.95;;;;;;;;;;5014691;28;20475;-69
2021/01/13 10:22:24;;;;;;;5.55;2.17;;;;;;;;;;5031750;28;20500;-69
2021/01/13 10:24:51;;;;;;;6.10;2.42;;;;;;;;;;5031613;28;20115;-69
2021/01/13 10:27:18;;;;;;;4.13;2.10;;;;;;;;;;5030113;28;20103;-70
2021/01/13 10:29:45;;;;;;;7.88;2.75;;;;;;;;;;5031886;28;20049;-69
2021/01/13 10:32:12;;;;;;;7.82;2.40;;;;;;;;;;5031983;28;20088;-69
2021/01/13 10:34:39;;;;;;;6.75;2.42;;;;;;;;;;5030408;28;20059;-70
2021/01/13 10:37:05;;;;;;;8.35;1.85;;;;;;;;;;5031435;28;20046;-69
2021/01/13 10:39:32;;;;;;;5.57;2.03;;;;;;;;;;5035168;28;20571;-66
2021/01/13 10:42:07;;;;;;;5.20;1.65;;;;;;;;;;5035781;28;20045;-66
2021/01/13 10:44:34;;;;;;;9.25;2.20;;;;;;;;;;5035426;28;20163;-66
2021/01/13 10:47:08;;;;;;;7.95;2.25;;;;;;;;;;5035006;28;20050;-67
2021/01/13 10:49:42;;;;;;;4.18;1.58;;;;;;;;;;5035483;28;20459;-66
2021/01/13 10:52:14;;;;;;;8.90;2.05;;;;;;;;;;5035470;28;20045;-67
2021/01/13 10:54:42;;;;;;;9.43;1.80;;;;;;;;;;5060666;22;20043;-70
2021/01/13 10:57:10;;;;;;;3.95;1.45;;;;;;;;;;5022731;28;20049;-71
2021/01/13 10:59:37;;;;;;;4.97;1.98;;;;;;;;;;5018355;28;20135;-73
2021/01/13 11:02:13;;;;;;;9.50;2.53;;;;;;;;;;5034687;28;20264;-71
2021/01/13 11:04:44;;;;;;;5.90;1.70;;;;;;;;;;5034616;28;20050;-71
2021/01/13 11:07:17;;;;;;;3.22;1.60;;;;;;;;;;5032900;28;20056;-71
2021/01/13 11:09:46;;;;;;;4.90;1.85;;;;;;;;;;5054075;28;20415;-71
2021/01/13 11:12:23;;;;;;;5.07;1.60;;;;;;;;;;5038309;28;20044;-70
2021/01/13 11:14:50;;;;;;;4.45;1.38;;;;;;;;;;5022084;28;20053;-70
2021/01/13 11:17:21;;;;;;;3.40;1.60;;;;;;;;;;5021608;28;20061;-70
2021/01/13 11:19:56;;;;;;;7.15;1.98;;;;;;;;;;5034873;28;20504;-70
2021/01/13 11:22:45;;;;;;;6.55;1.40;;;;;;;;;;5022943;28;20074;-70
2021/01/13 11:25:36;;;;;;;3.85;1.33;;;;;;;;;;5051646;28;20045;-70
2021/01/13 11:28:09;;;;;;;5.75;1.45;;;;;;;;;;5053655;28;20056;-72
2021/01/13 11:30:37;;;;;;;4.95;1.20;;;;;;;;;;5071607;28;20051;-71
2021/01/13 11:33:05;;;;;;;5.57;1.52;;;;;;;;;;5059152;28;20337;-71
2021/01/13 11:35:35;;;;;;;4.30;1.25;;;;;;;;;;5052735;28;20041;-71
2021/01/13 11:38:01;;;;;;;4.18;2.15;;;;;;;;;;5067891;28;20071;-70
2021/01/13 11:40:46;;;;;;;3.13;1.00;;;;;;;;;;5077818;28;20041;-71
2021/01/13 11:43:34;;;;;;;5.55;2.60;;;;;;;;;;5062461;28;20041;-71
2021/01/13 11:46:11;;;;;;;9.80;2.38;;;;;;;;;;5075625;28;20033;-71
2021/01/13 11:48:59;;;;;;;7.82;3.25;;;;;;;;;;5076911;28;20033;-71
2021/01/13 11:51:25;;;;;;;6.45;2.92;;;;;;;;;;5074781;28;20033;-71
2021/01/13 11:53:51;;;;;;;6.57;2.60;;;;;;;;;;5044374;28;20029;-71
2021/01/13 11:56:27;;;;;;;6.60;2.78;;;;;;;;;;5079000;22;20400;-79
2021/01/13 11:58:53;;;;;;;8.32;3.25;;;;;;;;;;5036541;28;20051;-78
2021/01/13 12:01:20;;;;;;;9.05;2.35;;;;;;;;;;5029587;28;20045;-78
2021/01/13 12:03:56;;;;;;;8.15;2.20;;;;;;;;;;5028884;28;20041;-79
2021/01/13 12:06:23;;;;;;;7.20;2.97;;;;;;;;;;5034346;28;20053;-78
2021/01/13 12:08:49;;;;;;;4.50;2.20;;;;;;;;;;5054356;28;20062;-78
2021/01/13 12:11:15;;;;;;;5.13;2.13;;;;;;;;;;5043769;28;20048;-77
2021/01/13 12:13:48;;;;;;;5.18;1.80;;;;;;;;;;5032459;28;20049;-78
2021/01/13 12:16:17;;;;;;;5.05;1.70;;;;;;;;;;5020976;28;20570;-77
2021/01/13 12:18:49;;;;;;;6.53;1.92;;;;;;;;;;5020542;28;20059;-77
2021/01/13 12:21:15;;;;;;;6.60;1.75;;;;;;;;;;5036571;28;20115;-78
2021/01/13 12:23:42;;;;;;;6.97;2.15;;;;;;;;;;5052135;28;20056;-78
2021/01/13 12:26:34;;;;;;;7.38;2.20;;;;;;;;;;5037291;28;20049;-78
2021/01/13 12:29:03;;;;;;;3.58;1.40;;;;;;;;;;5053007;28;20049;-78
2021/01/13 12:31:43;;;;;;;5.07;1.63;;;;;;;;;;5053775;28;20063;-78
2021/01/13 12:34:23;;;;;;;5.50;1.35;;;;;;;;;;5037763;28;20497;-79
2021/01/13 12:36:51;;;;;;;4.47;1.50;;;;;;;;;;5038600;28;20071;-80
2021/01/13 12:39:35;;;;;;;3.83;0.98;;;;;;;;;;5021752;28;20045;-78
2021/01/13 12:42:03;;;;;;;6.85;1.70;;;;;;;;;;5023470;28;20412;-80
2021/01/13 12:44:29;;;;;;;6.80;1.73;;;;;;;;;;5026075;28;20053;-80
2021/01/13 12:47:08;;;;;;;5.00;2.03;;;;;;;;;;5024901;28;20071;-79
2021/01/13 12:49:34;;;;;;;12.77;3.08;;;;;;;;;;5028704;28;20055;-79
2021/01/13 12:52:00;;;;;;;6.30;1.73;;;;;;;;;;5027086;28;20045;-79
2021/01/13 12:54:27;;;;;;;5.78;1.20;;;;;;;;;;5027166;28;20055;-81
2021/01/13 12:56:53;;;;;;;4.50;1.30;;;;;;;;;;5023999;28;20416;-78
2021/01/13 12:59:20;;;;;;;4.05;1.42;;;;;;;;;;5020880;28;20052;-77
2021/01/13 13:01:47;;;;;;;4.78;1.17;;;;;;;;;;5033038;28;20084;-77
2021/01/13 13:04:14;;;;;;;6.97;1.00;;;;;;;;;;5041585;28;20051;-80
2021/01/13 13:06:40;;;;;;;2.97;0.77;;;;;;;;;;5044090;28;20075;-79
2021/01/13 13:09:12;;;;;;;1.98;1.45;;;;;;;;;;5047169;28;20053;-79
2021/01/13 13:11:40;;;;;;;3.53;1.05;;;;;;;;;;5035151;28;20057;-79
2021/01/13 13:14:08;;;;;;;2.00;0.77;;;;;;;;;;5037728;28;20063;-78
2021/01/13 13:16:35;;;;;;;5.38;1.38;;;;;;;;;;5039010;28;20044;-78
2021/01/13 13:19:01;;;;;;;4.45;0.90;;;;;;;;;;5039284;28;20053;-80
2021/01/13 13:21:35;;;;;;;4.38;1.00;;;;;;;;;;5026634;28;20057;-80
2021/01/13 13:24:01;;;;;;;4.53;1.05;;;;;;;;;;5041115;28;20500;-80
2021/01/13 13:26:29;;;;;;;3.55;0.90;;;;;;;;;;5041683;28;20144;-80
2021/01/13 13:28:55;;;;;;;3.80;1.15;;;;;;;;;;5041539;28;20051;-80
2021/01/13 13:31:22;;;;;;;2.33;0.70;;;;;;;;;;5047293;28;20055;-80
2021/01/13 13:33:49;;;;;;;1.63;0.77;;;;;;;;;;5061079;28;20420;-80
2021/01/13 13:36:16;;;;;;;4.72;0.93;;;;;;;;;;5060215;28;20492;-80
2021/01/13 13:38:45;;;;;;;2.28;0.93;;;;;;;;;;5044928;28;20080;-80
2021/01/13 13:41:11;;;;;;;4.68;1.10;;;;;;;;;;5040431;28;20493;-81
2021/01/13 13:43:38;;;;;;;3.40;1.00;;;;;;;;;;5041672;28;20445;-81
2021/01/13 13:46:05;;;;;;;4.10;1.02;;;;;;;;;;5024576;28;20053;-80
2021/01/13 13:48:32;;;;;;;2.22;1.05;;;;;;;;;;5039374;28;20055;-81
2021/01/13 13:50:59;;;;;;;1.48;0.90;;;;;;;;;;5059440;28;20045;-81
2021/01/13 13:53:29;;;;;;;5.05;1.40;;;;;;;;;;5045449;28;20076;-78
2021/01/13 13:55:56;;;;;;;1.33;1.05;;;;;;;;;;5050304;28;20045;-80
2021/01/13 13:58:26;;;;;;;3.88;1.30;;;;;;;;;;5077452;28;20051;-81
2021/01/13 14:00:54;;;;;;;7.30;1.42;;;;;;;;;;5058970;28;20504;-81
2021/01/13 14:03:20;;;;;;;11.43;2.00;;;;;;;;;;5031950;28;20500;-81
2021/01/13 14:05:46;;;;;;;3.28;1.25;;;;;;;;;;5030333;28;20045;-81
2021/01/13 14:08:13;;;;;;;6.20;1.70;;;;;;;;;;5042811;28;20057;-81
2021/01/13 14:10:40;;;;;;;5.50;2.28;;;;;;;;;;5042697;28;20057;-84
2021/01/13 14:13:06;;;;;;;2.75;1.50;;;;;;;;;;5028149;28;20108;-81
2021/01/13 14:15:32;;;;;;;1.98;0.90;;;;;;;;;;5036712;28;20061;-81
2021/01/13 14:18:04;;;;;;;3.03;1.27;;;;;;;;;;5033953;28;20073;-81
2021/01/13 14:20:31;;;;;;;6.15;1.98;;;;;;;;;;5050310;28;20044;-81
2021/01/13 14:22:57;;;;;;;5.47;1.30;;;;;;;;;;5043293;28;20435;-83
2021/01/13 14:25:23;;;;;;;2.95;1.00;;;;;;;;;;5018945;28;20056;-82
2021/01/13 14:27:49;;;;;;;3.90;1.35;;;;;;;;;;5019381;28;20515;-79
2021/01/13 14:30:16;;;;;;;3.97;1.23;;;;;;;;;;5035604;28;20052;-79
2021/01/13 14:32:49;;;;;;;6.07;1.38;;;;;;;;;;5030609;28;20099;-79
2021/01/13 14:35:18;;;;;;;2.08;1.13;;;;;;;;;;5040064;28;20108;-80
2021/01/13 14:37:44;;;;;;;4.07;1.55;;;;;;;;;;5041113;28;20143;-79
2021/01/13 14:40:11;;;;;;;3.65;1.27;;;;;;;;;;5057725;28;20052;-79
2021/01/13 14:42:38;;;;;;;3.85;1.10;;;;;;;;;;5038158;28;20495;-78
2021/01/13 14:45:05;;;;;;;3.80;1.33;;;;;;;;;;5057269;28;20052;-79
2021/01/13 14:47:34;;;;;;;5.13;1.13;;;;;;;;;;5057406;28;20492;-79
2021/01/13 14:50:02;;;;;;;3.33;1.20;;;;;;;;;;5041407;28;20048;-81
2021/01/13 14:52:28;;;;;;;5.38;1.60;;;;;;;;;;5045497;28;20040;-79
2021/01/13 14:54:54;;;;;;;8.80;1.70;;;;;;;;;;5039216;28;20044;-79
2021/01/13 14:57:22;;;;;;;8.27;1.48;;;;;;;;;;5047435;28;20049;-79
2021/01/13 14:59:48;;;;;;;2.97;1.45;;;;;;;;;;5043849;28;20507;-78
2021/01/13 15:02:14;;;;;;;2.58;1.42;;;;;;;;;;5056411;28;20045;-80
2021/01/13 15:04:40;;;;;;;7.70;2.45;;;;;;;;;;5041314;28;20053;-79
2021/01/13 15:07:07;;;;;;;6.28;1.70;;;;;;;;;;5037943;28;20574;-79
2021/01/13 15:09:34;;;;;;;5.80;3.22;;;;;;;;;;5039321;28;20419;-78